sensor_id;sensor_type;location;lat;lon;timestamp;P1;durP1;ratioP1;P2;durP2;ratioP2
42414;SDS011;28058;46.344;17.786;2022-11-24T16:07:04;17.02;;;12.02;;
42414;SDS011;28058;46.344;17.786;2022-11-24T16:09:37;17.30;;;12.75;;
42414;SDS011;28058;46.344;17.786;2022-11-24T16:12:10;17.42;;;10.98;;
42414;SDS011;28058;46.344;17.786;2022-11-24T16:14:42;17.08;;;12.10;;
42414;SDS011;28058;46.344;17.786;2022-11-24T16:17:16;14.30;;;10.70;;
42414;SDS011;28058;46.344;17.786;2022-11-24T16:19:52;16.08;;;11.82;;
42414;SDS011;28058;46.344;17.786;2022-11-24T16:22:29;17.98;;;11.90;;
42414;SDS011;28058;46.344;17.786;2022-11-24T16:25:01;18.52;;;12.43;;
42414;SDS011;28058;46.344;17.786;2022-11-24T16:27:32;18.98;;;12.77;;
42414;SDS011;28058;46.344;17.786;2022-11-24T16:30:01;21.58;;;12.95;;
42414;SDS011;28058;46.344;17.786;2022-11-24T16:32:32;18.88;;;13.45;;
42414;SDS011;28058;46.344;17.786;2022-11-24T16:35:03;27.83;;;18.65;;
42414;SDS011;28058;46.344;17.786;2022-11-24T16:37:41;32.53;;;19.80;;
42414;SDS011;28058;46.344;17.786;2022-11-24T16:40:18;28.90;;;20.98;;
42414;SDS011;28058;46.344;17.786;2022-11-24T16:42:56;26.60;;;18.35;;
42414;SDS011;28058;46.344;17.786;2022-11-24T16:45:33;28.80;;;19.23;;
42414;SDS011;28058;46.344;17.786;2022-11-24T16:50:46;24.75;;;17.80;;
42414;SDS011;28058;46.344;17.786;2022-11-24T16:53:23;25.65;;;17.83;;
42414;SDS011;28058;46.344;17.786;2022-11-24T16:55:55;24.33;;;17.92;;
42414;SDS011;28058;46.344;17.786;2022-11-24T16:58:30;31.50;;;22.83;;
42414;SDS011;28058;46.344;17.786;2022-11-24T17:01:11;33.22;;;21.83;;
42414;SDS011;28058;46.344;17.786;2022-11-24T17:03:44;25.80;;;19.27;;
42414;SDS011;28058;46.344;17.786;2022-11-24T17:06:15;28.63;;;18.83;;
42414;SDS011;28058;46.344;17.786;2022-11-24T17:08:55;25.30;;;16.58;;
42414;SDS011;28058;46.344;17.786;2022-11-24T17:11:26;23.75;;;15.45;;
42414;SDS011;28058;46.344;17.786;2022-11-24T17:14:08;24.17;;;16.42;;
42414;SDS011;28058;46.344;17.786;2022-11-24T17:19:07;28.55;;;16.63;;
42414;SDS011;28058;46.344;17.786;2022-11-24T17:21:34;34.15;;;19.50;;
42414;SDS011;28058;46.344;17.786;2022-11-24T17:24:04;32.05;;;21.85;;
42414;SDS011;28058;46.344;17.786;2022-11-24T17:26:32;27.63;;;19.38;;
42414;SDS011;28058;46.344;17.786;2022-11-24T17:28:59;24.88;;;17.80;;
42414;SDS011;28058;46.344;17.786;2022-11-24T17:31:27;23.38;;;16.90;;
42414;SDS011;28058;46.344;17.786;2022-11-24T17:34:02;23.73;;;18.88;;
42414;SDS011;28058;46.344;17.786;2022-11-24T17:36:32;20.98;;;14.88;;
42414;SDS011;28058;46.344;17.786;2022-11-24T17:41:35;19.77;;;15.15;;
42414;SDS011;28058;46.344;17.786;2022-11-24T17:44:03;24.70;;;16.80;;
42414;SDS011;28058;46.344;17.786;2022-11-24T17:46:33;21.77;;;15.50;;
42414;SDS011;28058;46.344;17.786;2022-11-24T17:49:03;22.10;;;16.00;;
42414;SDS011;28058;46.344;17.786;2022-11-24T17:51:32;23.75;;;16.85;;
42414;SDS011;28058;46.344;17.786;2022-11-24T17:53:59;24.42;;;16.92;;
42414;SDS011;28058;46.344;17.786;2022-11-24T17:56:44;31.67;;;20.42;;
42414;SDS011;28058;46.344;17.786;2022-11-24T17:59:12;43.15;;;29.83;;
42414;SDS011;28058;46.344;17.786;2022-11-24T18:01:39;70.82;;;46.25;;
42414;SDS011;28058;46.344;17.786;2022-11-24T18:04:07;59.90;;;39.92;;
42414;SDS011;28058;46.344;17.786;2022-11-24T18:06:41;52.92;;;38.47;;
42414;SDS011;28058;46.344;17.786;2022-11-24T18:09:18;53.70;;;35.72;;
42414;SDS011;28058;46.344;17.786;2022-11-24T18:11:46;47.22;;;33.63;;
42414;SDS011;28058;46.344;17.786;2022-11-24T18:14:16;55.97;;;40.03;;
42414;SDS011;28058;46.344;17.786;2022-11-24T18:16:45;57.85;;;37.67;;
42414;SDS011;28058;46.344;17.786;2022-11-24T18:19:13;62.88;;;41.13;;
42414;SDS011;28058;46.344;17.786;2022-11-24T18:21:41;59.70;;;40.75;;
42414;SDS011;28058;46.344;17.786;2022-11-24T18:24:16;69.72;;;45.17;;
42414;SDS011;28058;46.344;17.786;2022-11-24T18:27:01;67.38;;;42.58;;
42414;SDS011;28058;46.344;17.786;2022-11-24T18:29:34;56.85;;;37.85;;
42414;SDS011;28058;46.344;17.786;2022-11-24T18:32:05;52.28;;;32.60;;
42414;SDS011;28058;46.344;17.786;2022-11-24T18:34:43;50.60;;;34.00;;
42414;SDS011;28058;46.344;17.786;2022-11-24T18:37:16;49.55;;;34.63;;
42414;SDS011;28058;46.344;17.786;2022-11-24T18:39:48;57.17;;;37.83;;
42414;SDS011;28058;46.344;17.786;2022-11-24T18:42:18;57.90;;;38.78;;
42414;SDS011;28058;46.344;17.786;2022-11-24T18:44:57;87.53;;;55.40;;
42414;SDS011;28058;46.344;17.786;2022-11-24T18:47:43;73.97;;;47.20;;
42414;SDS011;28058;46.344;17.786;2022-11-24T18:50:20;71.85;;;49.53;;
42414;SDS011;28058;46.344;17.786;2022-11-24T18:52:54;94.15;;;63.88;;
42414;SDS011;28058;46.344;17.786;2022-11-24T18:55:22;84.80;;;55.05;;
42414;SDS011;28058;46.344;17.786;2022-11-24T18:57:52;85.32;;;53.92;;
42414;SDS011;28058;46.344;17.786;2022-11-24T19:00:20;80.85;;;52.83;;
42414;SDS011;28058;46.344;17.786;2022-11-24T19:02:49;76.65;;;52.03;;
42414;SDS011;28058;46.344;17.786;2022-11-24T19:05:22;78.68;;;52.30;;
42414;SDS011;28058;46.344;17.786;2022-11-24T19:07:52;75.80;;;51.30;;
42414;SDS011;28058;46.344;17.786;2022-11-24T19:10:21;77.25;;;54.40;;
42414;SDS011;28058;46.344;17.786;2022-11-24T19:12:54;70.45;;;47.65;;
42414;SDS011;28058;46.344;17.786;2022-11-24T19:15:30;74.05;;;47.63;;
42414;SDS011;28058;46.344;17.786;2022-11-24T19:18:00;83.28;;;53.83;;
42414;SDS011;28058;46.344;17.786;2022-11-24T19:20:32;75.43;;;45.10;;
42414;SDS011;28058;46.344;17.786;2022-11-24T19:23:00;75.40;;;46.35;;
42414;SDS011;28058;46.344;17.786;2022-11-24T19:25:28;75.53;;;48.70;;
42414;SDS011;28058;46.344;17.786;2022-11-24T19:27:55;72.75;;;47.70;;
42414;SDS011;28058;46.344;17.786;2022-11-24T19:30:23;70.45;;;47.08;;
42414;SDS011;28058;46.344;17.786;2022-11-24T19:32:50;68.70;;;45.88;;
42414;SDS011;28058;46.344;17.786;2022-11-24T19:35:17;68.45;;;44.67;;
42414;SDS011;28058;46.344;17.786;2022-11-24T19:37:44;71.30;;;46.83;;
42414;SDS011;28058;46.344;17.786;2022-11-24T19:40:12;69.60;;;45.80;;
42414;SDS011;28058;46.344;17.786;2022-11-24T19:42:39;68.28;;;45.50;;
42414;SDS011;28058;46.344;17.786;2022-11-24T19:45:07;71.57;;;47.70;;
42414;SDS011;28058;46.344;17.786;2022-11-24T19:47:35;73.75;;;48.30;;
42414;SDS011;28058;46.344;17.786;2022-11-24T19:50:04;79.25;;;52.70;;
42414;SDS011;28058;46.344;17.786;2022-11-24T19:52:35;76.13;;;50.40;;
42414;SDS011;28058;46.344;17.786;2022-11-24T19:55:03;78.00;;;49.88;;
42414;SDS011;28058;46.344;17.786;2022-11-24T19:57:31;80.82;;;51.63;;
42414;SDS011;28058;46.344;17.786;2022-11-24T19:59:59;86.10;;;54.97;;
42414;SDS011;28058;46.344;17.786;2022-11-24T20:02:27;78.95;;;54.95;;
42414;SDS011;28058;46.344;17.786;2022-11-24T20:04:55;86.28;;;59.65;;
42414;SDS011;28058;46.344;17.786;2022-11-24T20:07:23;89.03;;;54.65;;
42414;SDS011;28058;46.344;17.786;2022-11-24T20:09:50;82.00;;;51.83;;
42414;SDS011;28058;46.344;17.786;2022-11-24T20:12:18;73.88;;;49.47;;
42414;SDS011;28058;46.344;17.786;2022-11-24T20:14:45;74.10;;;51.60;;
42414;SDS011;28058;46.344;17.786;2022-11-24T20:17:13;68.68;;;45.75;;
42414;SDS011;28058;46.344;17.786;2022-11-24T20:19:40;61.33;;;40.38;;
42414;SDS011;28058;46.344;17.786;2022-11-24T20:22:08;62.70;;;40.45;;
42414;SDS011;28058;46.344;17.786;2022-11-24T20:24:36;60.00;;;38.47;;
42414;SDS011;28058;46.344;17.786;2022-11-24T20:27:04;61.35;;;40.67;;
42414;SDS011;28058;46.344;17.786;2022-11-24T20:29:31;63.97;;;42.42;;
42414;SDS011;28058;46.344;17.786;2022-11-24T20:32:00;82.60;;;48.42;;
42414;SDS011;28058;46.344;17.786;2022-11-24T20:34:28;71.57;;;45.47;;
42414;SDS011;28058;46.344;17.786;2022-11-24T20:36:56;70.85;;;44.22;;
42414;SDS011;28058;46.344;17.786;2022-11-24T20:39:25;71.15;;;43.03;;
42414;SDS011;28058;46.344;17.786;2022-11-24T20:44:24;73.53;;;45.30;;
42414;SDS011;28058;46.344;17.786;2022-11-24T20:46:54;73.40;;;41.85;;
42414;SDS011;28058;46.344;17.786;2022-11-24T20:49:22;61.13;;;38.63;;
42414;SDS011;28058;46.344;17.786;2022-11-24T20:51:50;58.72;;;37.20;;
42414;SDS011;28058;46.344;17.786;2022-11-24T20:54:20;54.88;;;35.65;;
42414;SDS011;28058;46.344;17.786;2022-11-24T20:56:48;70.30;;;43.35;;
42414;SDS011;28058;46.344;17.786;2022-11-24T20:59:18;69.78;;;46.70;;
42414;SDS011;28058;46.344;17.786;2022-11-24T21:01:47;62.42;;;40.28;;
42414;SDS011;28058;46.344;17.786;2022-11-24T21:04:17;70.25;;;37.63;;
42414;SDS011;28058;46.344;17.786;2022-11-24T21:06:47;59.88;;;37.53;;
42414;SDS011;28058;46.344;17.786;2022-11-24T21:09:21;59.95;;;36.75;;
42414;SDS011;28058;46.344;17.786;2022-11-24T21:11:50;62.15;;;36.28;;
42414;SDS011;28058;46.344;17.786;2022-11-24T21:14:17;60.30;;;36.22;;
42414;SDS011;28058;46.344;17.786;2022-11-24T21:16:45;63.00;;;39.08;;
42414;SDS011;28058;46.344;17.786;2022-11-24T21:19:13;58.70;;;35.63;;
42414;SDS011;28058;46.344;17.786;2022-11-24T21:21:43;56.83;;;35.85;;
42414;SDS011;28058;46.344;17.786;2022-11-24T21:24:14;52.42;;;34.10;;
42414;SDS011;28058;46.344;17.786;2022-11-24T21:26:44;53.28;;;32.50;;
42414;SDS011;28058;46.344;17.786;2022-11-24T21:29:16;51.65;;;32.38;;
42414;SDS011;28058;46.344;17.786;2022-11-24T21:31:49;52.83;;;33.67;;
42414;SDS011;28058;46.344;17.786;2022-11-24T21:34:17;56.90;;;35.42;;
42414;SDS011;28058;46.344;17.786;2022-11-24T21:36:45;50.80;;;32.78;;
42414;SDS011;28058;46.344;17.786;2022-11-24T21:39:12;50.50;;;32.72;;
42414;SDS011;28058;46.344;17.786;2022-11-24T21:41:40;50.25;;;33.10;;
42414;SDS011;28058;46.344;17.786;2022-11-24T21:44:09;56.45;;;35.92;;
42414;SDS011;28058;46.344;17.786;2022-11-24T21:46:40;56.45;;;35.15;;
42414;SDS011;28058;46.344;17.786;2022-11-24T21:49:17;51.63;;;33.53;;
42414;SDS011;28058;46.344;17.786;2022-11-24T21:51:45;49.13;;;31.85;;
42414;SDS011;28058;46.344;17.786;2022-11-24T21:54:12;44.72;;;28.90;;
42414;SDS011;28058;46.344;17.786;2022-11-24T21:56:40;52.38;;;32.38;;
42414;SDS011;28058;46.344;17.786;2022-11-24T21:59:07;45.70;;;30.33;;
42414;SDS011;28058;46.344;17.786;2022-11-24T22:01:34;78.20;;;49.70;;
42414;SDS011;28058;46.344;17.786;2022-11-24T22:04:01;59.00;;;38.45;;
42414;SDS011;28058;46.344;17.786;2022-11-24T22:06:29;57.88;;;38.67;;
42414;SDS011;28058;46.344;17.786;2022-11-24T22:08:57;73.80;;;47.90;;
42414;SDS011;28058;46.344;17.786;2022-11-24T22:11:24;82.85;;;48.20;;
42414;SDS011;28058;46.344;17.786;2022-11-24T22:13:52;58.97;;;35.65;;
42414;SDS011;28058;46.344;17.786;2022-11-24T22:16:20;55.13;;;35.60;;
42414;SDS011;28058;46.344;17.786;2022-11-24T22:18:49;41.13;;;29.05;;
42414;SDS011;28058;46.344;17.786;2022-11-24T22:21:18;48.70;;;31.10;;
42414;SDS011;28058;46.344;17.786;2022-11-24T22:23:49;45.65;;;27.38;;
42414;SDS011;28058;46.344;17.786;2022-11-24T22:26:19;45.35;;;29.83;;
42414;SDS011;28058;46.344;17.786;2022-11-24T22:28:50;43.65;;;29.55;;
42414;SDS011;28058;46.344;17.786;2022-11-24T22:31:19;46.78;;;29.20;;
42414;SDS011;28058;46.344;17.786;2022-11-24T22:33:53;49.60;;;33.45;;
42414;SDS011;28058;46.344;17.786;2022-11-24T22:36:22;52.05;;;32.60;;
42414;SDS011;28058;46.344;17.786;2022-11-24T22:38:52;49.38;;;31.85;;
42414;SDS011;28058;46.344;17.786;2022-11-24T22:41:20;50.60;;;33.38;;
42414;SDS011;28058;46.344;17.786;2022-11-24T22:43:49;57.78;;;35.20;;
42414;SDS011;28058;46.344;17.786;2022-11-24T22:46:17;47.83;;;32.15;;
42414;SDS011;28058;46.344;17.786;2022-11-24T22:48:46;49.28;;;31.08;;
42414;SDS011;28058;46.344;17.786;2022-11-24T22:51:15;49.95;;;30.38;;
42414;SDS011;28058;46.344;17.786;2022-11-24T22:53:48;36.80;;;26.20;;
42414;SDS011;28058;46.344;17.786;2022-11-24T22:56:16;42.47;;;26.13;;
42414;SDS011;28058;46.344;17.786;2022-11-24T22:58:47;45.78;;;26.58;;
42414;SDS011;28058;46.344;17.786;2022-11-24T23:01:17;42.92;;;27.08;;
42414;SDS011;28058;46.344;17.786;2022-11-24T23:03:47;50.75;;;31.83;;
42414;SDS011;28058;46.344;17.786;2022-11-24T23:06:15;42.45;;;27.35;;
42414;SDS011;28058;46.344;17.786;2022-11-24T23:08:44;47.55;;;28.25;;
42414;SDS011;28058;46.344;17.786;2022-11-24T23:11:15;42.50;;;29.25;;
42414;SDS011;28058;46.344;17.786;2022-11-24T23:13:44;44.17;;;28.17;;
42414;SDS011;28058;46.344;17.786;2022-11-24T23:16:16;44.35;;;26.70;;
42414;SDS011;28058;46.344;17.786;2022-11-24T23:18:45;39.17;;;28.17;;
42414;SDS011;28058;46.344;17.786;2022-11-24T23:21:21;40.22;;;25.73;;
42414;SDS011;28058;46.344;17.786;2022-11-24T23:23:50;36.08;;;24.85;;
42414;SDS011;28058;46.344;17.786;2022-11-24T23:26:19;42.60;;;26.05;;
42414;SDS011;28058;46.344;17.786;2022-11-24T23:28:52;30.85;;;21.27;;
42414;SDS011;28058;46.344;17.786;2022-11-24T23:31:21;39.55;;;25.17;;
42414;SDS011;28058;46.344;17.786;2022-11-24T23:33:59;35.97;;;23.63;;
42414;SDS011;28058;46.344;17.786;2022-11-24T23:36:27;35.58;;;23.60;;
42414;SDS011;28058;46.344;17.786;2022-11-24T23:39:00;35.50;;;22.67;;
42414;SDS011;28058;46.344;17.786;2022-11-24T23:41:29;35.97;;;21.85;;
42414;SDS011;28058;46.344;17.786;2022-11-24T23:43:57;33.78;;;20.98;;
42414;SDS011;28058;46.344;17.786;2022-11-24T23:46:24;34.10;;;21.88;;
42414;SDS011;28058;46.344;17.786;2022-11-24T23:48:52;33.40;;;22.50;;
42414;SDS011;28058;46.344;17.786;2022-11-24T23:51:23;37.08;;;22.58;;
42414;SDS011;28058;46.344;17.786;2022-11-24T23:53:52;34.28;;;22.13;;
42414;SDS011;28058;46.344;17.786;2022-11-24T23:56:37;30.38;;;19.88;;
42414;SDS011;28058;46.344;17.786;2022-11-24T23:59:04;30.67;;;20.15;;
